createdAt,value
2018-10-06T00:01:05.929Z,5.83
2018-10-06T00:03:36.206Z,6.00
2018-10-06T00:06:05.477Z,6.80
2018-10-06T00:08:34.115Z,5.97
2018-10-06T00:11:02.753Z,6.70
2018-10-06T00:13:31.105Z,7.07
2018-10-06T00:15:59.294Z,6.53
2018-10-06T00:18:27.913Z,5.90
2018-10-06T00:20:55.985Z,5.80
2018-10-06T00:23:24.061Z,5.73
2018-10-06T00:25:52.560Z,5.00
2018-10-06T00:28:22.024Z,4.77
2018-10-06T00:30:50.984Z,5.87
2018-10-06T00:33:20.520Z,4.22
2018-10-06T00:35:48.576Z,4.50
2018-10-06T00:38:18.169Z,4.30
2018-10-06T00:40:46.749Z,4.03
2018-10-06T00:43:15.050Z,4.23
2018-10-06T00:45:43.531Z,4.80
2018-10-06T00:48:12.277Z,4.43
2018-10-06T00:50:41.061Z,4.70
2018-10-06T00:53:10.853Z,4.40
2018-10-06T00:55:39.561Z,4.43
2018-10-06T00:58:08.269Z,4.40
2018-10-06T01:00:36.958Z,4.53
2018-10-06T01:03:05.633Z,4.90
2018-10-06T01:05:34.029Z,4.40
2018-10-06T01:08:03.326Z,4.53
2018-10-06T01:10:31.445Z,4.73
2018-10-06T01:12:59.520Z,4.50
2018-10-06T01:15:28.713Z,4.83
2018-10-06T01:17:57.014Z,4.97
2018-10-06T01:20:26.734Z,5.00
2018-10-06T01:22:55.733Z,5.03
2018-10-06T01:25:23.981Z,4.28
2018-10-06T01:27:52.402Z,4.50
2018-10-06T01:30:21.637Z,4.22
2018-10-06T01:32:49.736Z,4.77
2018-10-06T01:35:17.957Z,4.70
2018-10-06T01:37:46.151Z,4.57
2018-10-06T01:40:14.833Z,4.37
2018-10-06T01:42:43.658Z,4.67
2018-10-06T01:45:12.085Z,4.60
2018-10-06T01:47:40.637Z,4.93
2018-10-06T01:50:09.210Z,5.00
2018-10-06T01:52:38.677Z,4.87
2018-10-06T01:55:06.759Z,4.77
2018-10-06T01:57:35.229Z,4.67
2018-10-06T02:00:03.985Z,4.30
2018-10-06T02:02:33.000Z,4.50
2018-10-06T02:05:01.879Z,4.57
2018-10-06T02:07:31.082Z,4.08
2018-10-06T02:09:59.865Z,4.03
2018-10-06T02:12:27.989Z,4.33
2018-10-06T02:14:56.629Z,4.00
2018-10-06T02:17:25.153Z,3.87
2018-10-06T02:19:55.020Z,3.87
2018-10-06T02:22:24.469Z,4.20
2018-10-06T02:24:53.102Z,3.97
2018-10-06T02:27:21.923Z,3.70
2018-10-06T02:29:51.391Z,3.40
2018-10-06T02:32:20.134Z,3.43
2018-10-06T02:34:48.245Z,3.97
2018-10-06T02:37:17.333Z,3.97
2018-10-06T02:39:45.765Z,4.03
2018-10-06T02:42:14.781Z,4.17
2018-10-06T02:44:43.291Z,4.00
2018-10-06T02:47:13.038Z,4.65
2018-10-06T02:49:41.211Z,4.27
2018-10-06T02:52:09.501Z,4.37
2018-10-06T02:54:37.649Z,4.97
2018-10-06T02:57:06.065Z,5.30
2018-10-06T02:59:34.615Z,4.57
2018-10-06T03:02:03.613Z,4.43
2018-10-06T03:04:31.738Z,5.57
2018-10-06T03:07:00.261Z,4.83
2018-10-06T03:09:28.973Z,5.10
2018-10-06T03:11:57.653Z,4.83
2018-10-06T03:14:25.825Z,5.45
2018-10-06T03:16:54.090Z,5.30
2018-10-06T03:19:22.236Z,5.87
2018-10-06T03:21:50.487Z,5.23
2018-10-06T03:24:19.773Z,5.92
2018-10-06T03:26:48.425Z,5.13
2018-10-06T03:29:17.317Z,5.13
2018-10-06T03:31:45.622Z,4.73
2018-10-06T03:34:14.289Z,5.10
2018-10-06T03:36:43.418Z,4.57
2018-10-06T03:39:11.781Z,4.67
2018-10-06T03:41:41.049Z,4.93
2018-10-06T03:44:09.609Z,4.77
2018-10-06T03:46:38.842Z,4.53
2018-10-06T03:49:07.673Z,5.30
2018-10-06T03:51:37.098Z,3.60
2018-10-06T03:54:06.558Z,4.23
2018-10-06T03:56:36.466Z,3.80
2018-10-06T03:59:05.382Z,3.13
2018-10-06T04:01:33.613Z,2.80
2018-10-06T04:04:02.218Z,3.13
2018-10-06T04:06:31.638Z,3.63
2018-10-06T04:09:00.530Z,3.07
2018-10-06T04:11:31.191Z,3.00
2018-10-06T04:13:59.441Z,4.20
2018-10-06T04:16:28.549Z,3.65
2018-10-06T04:18:57.361Z,3.20
2018-10-06T04:21:27.093Z,2.77
2018-10-06T04:23:55.149Z,3.07
2018-10-06T04:26:23.471Z,2.70
2018-10-06T04:28:52.481Z,3.23
2018-10-06T04:31:22.957Z,2.92
2018-10-06T04:33:51.762Z,2.80
2018-10-06T04:36:20.545Z,3.00
2018-10-06T04:38:49.633Z,2.67
2018-10-06T04:41:18.456Z,3.10
2018-10-06T04:43:47.505Z,3.10
2018-10-06T04:46:15.651Z,3.17
2018-10-06T04:48:43.944Z,3.17
2018-10-06T04:51:12.397Z,3.20
2018-10-06T04:53:40.458Z,3.20
2018-10-06T04:56:08.601Z,2.97
2018-10-06T04:58:36.879Z,3.10
2018-10-06T05:01:05.443Z,3.57
2018-10-06T05:03:34.001Z,3.07
2018-10-06T05:06:02.884Z,3.13
2018-10-06T05:08:31.590Z,3.50
2018-10-06T05:10:59.975Z,3.07
2018-10-06T05:13:28.966Z,2.87
2018-10-06T05:15:58.473Z,3.20
2018-10-06T05:18:27.208Z,2.77
2018-10-06T05:20:55.449Z,3.33
2018-10-06T05:23:23.644Z,3.20
2018-10-06T05:25:52.117Z,3.17
2018-10-06T05:28:20.925Z,3.27
2018-10-06T05:30:50.909Z,3.50
2018-10-06T05:33:19.042Z,3.43
2018-10-06T05:35:48.033Z,3.80
2018-10-06T05:38:16.345Z,3.67
2018-10-06T05:40:44.933Z,3.30
2018-10-06T05:43:14.965Z,3.60
2018-10-06T05:45:43.429Z,3.53
2018-10-06T05:48:11.596Z,3.47
2018-10-06T05:50:40.009Z,3.27
2018-10-06T05:53:08.671Z,3.60
2018-10-06T05:55:37.343Z,3.13
2018-10-06T05:58:05.995Z,3.47
2018-10-06T06:00:34.858Z,3.40
2018-10-06T06:03:03.637Z,3.33
2018-10-06T06:05:31.921Z,3.50
2018-10-06T06:08:00.868Z,3.87
2018-10-06T06:10:29.401Z,3.47
2018-10-06T06:12:58.246Z,3.60
2018-10-06T06:15:26.713Z,4.00
2018-10-06T06:17:54.857Z,4.10
2018-10-06T06:20:23.017Z,3.60
2018-10-06T06:22:51.300Z,3.70
2018-10-06T06:25:20.232Z,4.20
2018-10-06T06:27:49.476Z,4.50
2018-10-06T06:30:18.570Z,4.80
2018-10-06T06:32:47.025Z,4.93
2018-10-06T06:35:15.346Z,4.20
2018-10-06T06:37:43.441Z,4.70
2018-10-06T06:40:12.806Z,5.20
2018-10-06T06:42:40.993Z,4.53
2018-10-06T06:45:09.951Z,5.13
2018-10-06T06:47:38.061Z,5.07
2018-10-06T06:50:06.865Z,4.77
2018-10-06T06:52:35.821Z,5.27
2018-10-06T06:55:04.418Z,5.53
2018-10-06T06:57:32.948Z,6.00
2018-10-06T07:00:01.642Z,6.03
2018-10-06T07:02:30.057Z,5.93
2018-10-06T07:04:58.925Z,6.10
2018-10-06T07:07:27.157Z,6.42
2018-10-06T07:09:55.877Z,5.70
2018-10-06T07:12:25.293Z,6.07
2018-10-06T07:14:54.079Z,6.17
2018-10-06T07:17:23.359Z,5.85
2018-10-06T07:19:51.690Z,5.93
2018-10-06T07:22:19.752Z,5.43
2018-10-06T07:24:48.645Z,6.03
2018-10-06T07:27:16.864Z,6.40
2018-10-06T07:29:45.457Z,6.90
2018-10-06T07:33:18.288Z,6.10
2018-10-06T07:35:46.905Z,5.83
2018-10-06T07:38:15.006Z,5.57
2018-10-06T07:40:43.173Z,5.97
2018-10-06T07:43:12.886Z,5.78
2018-10-06T07:45:41.785Z,6.67
2018-10-06T07:48:10.998Z,5.83
2018-10-06T07:50:39.993Z,6.10
2018-10-06T07:53:08.074Z,6.60
2018-10-06T07:55:37.265Z,6.63
2018-10-06T07:58:05.941Z,6.33
2018-10-06T08:00:34.925Z,7.17
2018-10-06T08:03:03.792Z,6.33
2018-10-06T08:05:32.443Z,6.87
2018-10-06T08:08:00.506Z,7.17
2018-10-06T08:10:30.401Z,6.37
2018-10-06T08:12:58.909Z,7.27
2018-10-06T08:15:27.090Z,7.57
2018-10-06T08:17:55.284Z,7.67
2018-10-06T08:20:23.584Z,7.40
2018-10-06T08:22:52.865Z,7.50
2018-10-06T08:25:21.721Z,6.95
2018-10-06T08:27:51.461Z,7.77
2018-10-06T08:30:21.185Z,7.23
2018-10-06T08:32:50.011Z,7.03
2018-10-06T08:35:18.161Z,6.83
2018-10-06T08:37:47.293Z,8.00
2018-10-06T08:40:17.176Z,7.10
2018-10-06T08:42:46.128Z,8.40
2018-10-06T08:45:16.169Z,7.67
2018-10-06T08:47:44.402Z,8.63
2018-10-06T08:50:13.917Z,8.30
2018-10-06T08:52:42.945Z,7.97
2018-10-06T08:55:11.602Z,8.20
2018-10-06T08:57:40.277Z,8.57
2018-10-06T09:00:09.578Z,8.43
2018-10-06T09:02:38.369Z,8.88
2018-10-06T09:05:08.007Z,8.00
2018-10-06T09:07:36.497Z,8.05
2018-10-06T09:10:05.001Z,7.58
2018-10-06T09:12:33.827Z,7.15
2018-10-06T09:15:01.909Z,7.97
2018-10-06T09:17:31.012Z,7.17
2018-10-06T09:19:59.566Z,6.42
2018-10-06T09:22:28.553Z,7.37
2018-10-06T09:24:57.079Z,6.95
2018-10-06T09:27:25.997Z,6.87
2018-10-06T09:29:54.248Z,6.90
2018-10-06T09:32:22.460Z,6.70
2018-10-06T09:34:50.893Z,7.08
2018-10-06T09:37:19.251Z,6.67
2018-10-06T09:39:47.489Z,6.42
2018-10-06T09:42:17.604Z,7.00
2018-10-06T09:44:46.350Z,7.05
2018-10-06T09:47:15.865Z,6.92
2018-10-06T09:49:44.517Z,7.10
2018-10-06T09:52:13.884Z,6.86
2018-10-06T09:54:43.607Z,6.78
2018-10-06T09:57:11.661Z,6.87
2018-10-06T09:59:41.245Z,6.97
2018-10-06T10:02:14.154Z,6.97
2018-10-06T10:04:42.317Z,6.00
2018-10-06T10:07:11.205Z,7.22
2018-10-06T10:09:40.339Z,6.08
2018-10-06T10:12:09.226Z,6.70
2018-10-06T10:14:37.849Z,6.60
2018-10-06T10:17:07.597Z,6.45
2018-10-06T10:19:35.897Z,6.60
2018-10-06T10:22:04.484Z,6.53
2018-10-06T10:24:33.866Z,6.87
2018-10-06T10:27:03.109Z,6.60
2018-10-06T10:29:33.141Z,6.58
2018-10-06T10:32:01.355Z,6.50
2018-10-06T10:34:30.551Z,7.40
2018-10-06T10:37:00.229Z,6.72
2018-10-06T10:39:29.010Z,6.10
2018-10-06T10:41:57.225Z,6.30
2018-10-06T10:44:26.676Z,5.73
2018-10-06T10:46:56.013Z,6.30
2018-10-06T10:49:25.871Z,6.97
2018-10-06T10:51:53.861Z,6.65
2018-10-06T10:54:23.010Z,7.30
2018-10-06T10:56:51.888Z,7.50
2018-10-06T10:59:20.926Z,7.42
2018-10-06T11:01:49.349Z,6.70
2018-10-06T11:04:17.501Z,6.58
2018-10-06T11:06:46.948Z,6.58
2018-10-06T11:09:16.226Z,6.65
2018-10-06T11:11:45.446Z,7.00
2018-10-06T11:14:13.665Z,7.28
2018-10-06T11:16:42.270Z,6.80
2018-10-06T11:19:12.801Z,7.10
2018-10-06T11:21:40.861Z,7.50
2018-10-06T11:24:10.905Z,6.53
2018-10-06T11:26:39.101Z,6.58
2018-10-06T11:29:08.546Z,6.22
2018-10-06T11:31:37.349Z,7.15
2018-10-06T11:34:06.277Z,6.70
2018-10-06T11:36:35.473Z,6.65
2018-10-06T11:39:05.050Z,7.00
2018-10-06T11:41:34.041Z,6.37
2018-10-06T11:44:02.425Z,6.45
2018-10-06T11:46:31.167Z,6.30
2018-10-06T11:48:59.683Z,6.62
2018-10-06T11:51:29.677Z,6.27
2018-10-06T11:53:58.625Z,5.87
2018-10-06T11:56:27.374Z,6.80
2018-10-06T11:58:55.605Z,6.20
2018-10-06T12:01:25.474Z,6.20
2018-10-06T12:03:53.829Z,6.53
2018-10-06T12:06:21.929Z,6.50
2018-10-06T12:08:50.643Z,6.10
2018-10-06T12:11:19.549Z,6.35
2018-10-06T12:13:47.725Z,6.72
2018-10-06T12:16:16.254Z,6.53
2018-10-06T12:18:46.465Z,6.33
2018-10-06T12:21:14.645Z,7.05
2018-10-06T12:23:43.385Z,7.35
2018-10-06T12:26:12.098Z,6.80
2018-10-06T12:28:40.326Z,7.00
2018-10-06T12:31:08.582Z,6.45
2018-10-06T12:33:37.233Z,7.28
2018-10-06T12:36:06.501Z,6.62
2018-10-06T12:38:34.721Z,6.47
2018-10-06T12:41:02.972Z,6.65
2018-10-06T12:43:32.277Z,6.90
2018-10-06T12:46:01.142Z,6.60
2018-10-06T12:48:29.293Z,6.80
2018-10-06T12:50:57.445Z,6.42
2018-10-06T12:53:27.383Z,7.83
2018-10-06T12:55:55.845Z,6.25
2018-10-06T12:58:24.246Z,7.63
2018-10-06T13:00:52.860Z,7.75
2018-10-06T13:03:21.049Z,6.72
2018-10-06T13:05:49.516Z,7.37
2018-10-06T13:08:18.446Z,6.58
2018-10-06T13:10:46.824Z,5.92
2018-10-06T13:13:15.173Z,7.35
2018-10-06T13:15:44.669Z,6.67
2018-10-06T13:18:13.308Z,6.65
2018-10-06T13:20:41.829Z,6.05
2018-10-06T13:23:11.331Z,6.37
2018-10-06T13:25:39.471Z,6.70
2018-10-06T13:28:07.718Z,6.97
2018-10-06T13:30:37.582Z,6.67
2018-10-06T13:33:06.629Z,5.70
2018-10-06T13:35:34.878Z,5.92
2018-10-06T13:38:02.990Z,6.75
2018-10-06T13:40:32.022Z,6.20
2018-10-06T13:43:01.714Z,5.90
2018-10-06T13:45:29.997Z,8.27
2018-10-06T13:47:59.186Z,5.90
2018-10-06T13:50:27.913Z,5.80
2018-10-06T13:52:56.204Z,6.87
2018-10-06T13:55:24.357Z,6.80
2018-10-06T13:57:52.573Z,7.30
2018-10-06T14:00:21.422Z,6.76
2018-10-06T14:02:49.619Z,6.20
2018-10-06T14:05:18.561Z,6.64
2018-10-06T14:07:47.023Z,6.42
2018-10-06T14:10:15.084Z,5.87
2018-10-06T14:12:43.508Z,5.20
2018-10-06T14:15:12.353Z,5.62
2018-10-06T14:17:41.401Z,5.92
2018-10-06T14:20:10.105Z,5.28
2018-10-06T14:22:39.957Z,5.47
2018-10-06T14:25:08.509Z,5.92
2018-10-06T14:27:36.946Z,5.35
2018-10-06T14:30:05.829Z,6.42
2018-10-06T14:32:33.958Z,7.35
2018-10-06T14:35:03.357Z,6.22
2018-10-06T14:37:33.001Z,5.87
2018-10-06T14:40:01.578Z,5.65
2018-10-06T14:42:31.068Z,6.17
2018-10-06T14:44:59.386Z,6.55
2018-10-06T14:47:32.452Z,6.75
2018-10-06T14:50:01.441Z,5.80
2018-10-06T14:52:30.538Z,6.10
2018-10-06T14:54:59.407Z,7.03
2018-10-06T14:57:29.422Z,7.00
2018-10-06T14:59:57.686Z,6.60
2018-10-06T15:02:27.597Z,6.20
2018-10-06T15:04:56.525Z,5.00
2018-10-06T15:07:26.088Z,5.73
2018-10-06T15:09:54.821Z,5.30
2018-10-06T15:12:23.493Z,5.83
2018-10-06T15:14:52.003Z,4.92
2018-10-06T15:17:21.009Z,5.00
2018-10-06T15:19:50.290Z,5.25
2018-10-06T15:22:19.262Z,5.10
2018-10-06T15:24:48.602Z,4.92
2018-10-06T15:27:17.181Z,4.53
2018-10-06T15:29:45.344Z,4.67
2018-10-06T15:32:14.517Z,4.28
2018-10-06T15:34:43.335Z,4.75
2018-10-06T15:37:12.095Z,3.83
2018-10-06T15:39:40.389Z,4.17
2018-10-06T15:42:09.090Z,4.03
2018-10-06T15:44:37.823Z,4.47
2018-10-06T15:47:07.160Z,4.90
2018-10-06T15:49:35.865Z,5.10
2018-10-06T15:52:05.377Z,4.87
2018-10-06T15:54:34.234Z,5.12
2018-10-06T15:57:02.361Z,5.60
2018-10-06T15:59:32.090Z,5.33
2018-10-06T16:02:00.177Z,4.92
2018-10-06T16:04:28.409Z,4.70
2018-10-06T16:06:57.978Z,5.22
2018-10-06T16:09:27.410Z,4.95
2018-10-06T16:11:57.290Z,4.58
2018-10-06T16:14:26.461Z,4.80
2018-10-06T16:16:55.309Z,5.22
2018-10-06T16:19:23.845Z,4.65
2018-10-06T16:21:53.794Z,5.00
2018-10-06T16:24:22.236Z,5.93
2018-10-06T16:26:50.456Z,6.65
2018-10-06T16:29:19.865Z,4.90
2018-10-06T16:31:47.989Z,5.58
2018-10-06T16:34:16.245Z,5.87
2018-10-06T16:36:44.786Z,6.55
2018-10-06T16:39:14.256Z,6.72
2018-10-06T16:41:43.698Z,7.22
2018-10-06T16:44:12.457Z,8.55
2018-10-06T16:46:41.857Z,9.63
2018-10-06T16:49:10.469Z,9.80
2018-10-06T16:51:38.600Z,9.85
2018-10-06T16:54:07.940Z,9.98
2018-10-06T16:56:37.441Z,10.23
2018-10-06T16:59:06.361Z,8.93
2018-10-06T17:01:34.787Z,9.00
2018-10-06T17:04:02.829Z,8.88
2018-10-06T17:06:32.203Z,9.50
2018-10-06T17:09:00.942Z,10.90
2018-10-06T17:11:29.039Z,10.85
2018-10-06T17:13:57.197Z,9.73
2018-10-06T17:16:26.365Z,10.72
2018-10-06T17:18:54.449Z,10.05
2018-10-06T17:21:24.197Z,8.83
2018-10-06T17:23:53.274Z,8.75
2018-10-06T17:26:21.868Z,8.85
2018-10-06T17:28:50.028Z,8.28
2018-10-06T17:31:18.764Z,8.15
2018-10-06T17:33:48.291Z,7.80
2018-10-06T17:36:16.372Z,8.83
2018-10-06T17:38:45.231Z,7.30
2018-10-06T17:41:13.479Z,7.23
2018-10-06T17:43:43.041Z,7.77
2018-10-06T17:46:11.981Z,7.93
2018-10-06T17:48:41.917Z,8.10
2018-10-06T17:51:10.441Z,8.70
2018-10-06T17:53:38.685Z,7.43
2018-10-06T17:56:07.049Z,9.43
2018-10-06T17:58:36.413Z,8.87
2018-10-06T18:01:05.053Z,9.00
2018-10-06T18:03:33.344Z,8.87
2018-10-06T18:06:03.101Z,8.47
2018-10-06T18:08:32.209Z,9.67
2018-10-06T18:11:00.757Z,10.00
2018-10-06T18:13:28.865Z,10.83
2018-10-06T18:15:58.213Z,10.77
2018-10-06T18:18:27.697Z,11.07
2018-10-06T18:20:56.257Z,10.67
2018-10-06T18:23:24.473Z,11.93
2018-10-06T18:25:52.904Z,11.43
2018-10-06T18:28:22.481Z,10.90
2018-10-06T18:30:50.573Z,11.33
2018-10-06T18:33:19.774Z,11.67
2018-10-06T18:35:47.989Z,11.47
2018-10-06T18:38:17.077Z,15.07
2018-10-06T18:40:46.181Z,13.90
2018-10-06T18:43:14.465Z,13.20
2018-10-06T18:45:44.432Z,13.37
2018-10-06T18:48:13.478Z,13.67
2018-10-06T18:50:42.049Z,13.67
2018-10-06T18:53:10.641Z,13.37
2018-10-06T18:55:39.006Z,12.93
2018-10-06T18:58:07.801Z,12.70
2018-10-06T19:00:36.489Z,15.23
2018-10-06T19:03:06.201Z,13.03
2018-10-06T19:05:34.853Z,12.03
2018-10-06T19:08:04.493Z,11.37
2018-10-06T19:10:32.677Z,11.73
2018-10-06T19:13:02.729Z,12.00
2018-10-06T19:15:32.156Z,10.70
2018-10-06T19:18:01.524Z,11.23
2018-10-06T19:20:30.981Z,10.87
2018-10-06T19:22:59.310Z,10.23
2018-10-06T19:25:28.075Z,10.88
2018-10-06T19:27:56.428Z,10.83
2018-10-06T19:30:24.933Z,11.23
2018-10-06T19:32:54.062Z,12.83
2018-10-06T19:35:22.140Z,13.70
2018-10-06T19:37:51.790Z,13.50
2018-10-06T19:40:20.068Z,10.27
2018-10-06T19:42:48.211Z,14.97
2018-10-06T19:45:16.467Z,13.20
2018-10-06T19:47:44.974Z,12.43
2018-10-06T19:50:14.222Z,12.87
2018-10-06T19:52:42.470Z,10.53
2018-10-06T19:55:10.599Z,10.50
2018-10-06T19:57:38.857Z,11.10
2018-10-06T20:00:07.046Z,12.00
2018-10-06T20:03:38.776Z,12.07
2018-10-06T20:06:07.036Z,12.23
2018-10-06T20:08:38.150Z,11.50
2018-10-06T20:11:06.700Z,10.40
2018-10-06T20:13:35.089Z,11.23
2018-10-06T20:16:03.445Z,10.60
2018-10-06T20:18:32.845Z,10.07
2018-10-06T20:21:01.502Z,9.60
2018-10-06T20:23:30.925Z,10.25
2018-10-06T20:25:59.493Z,11.40
2018-10-06T20:28:27.969Z,11.60
2018-10-06T20:30:56.496Z,11.30
2018-10-06T20:33:25.232Z,10.17
2018-10-06T20:35:53.373Z,11.47
2018-10-06T20:38:22.322Z,10.17
2018-10-06T20:40:50.437Z,12.13
2018-10-06T20:43:18.626Z,12.83
2018-10-06T20:45:47.046Z,12.70
2018-10-06T20:48:15.945Z,11.60
2018-10-06T20:50:44.777Z,11.17
2018-10-06T20:53:13.071Z,12.30
2018-10-06T20:55:41.250Z,11.33
2018-10-06T20:58:10.485Z,11.70
2018-10-06T21:00:39.969Z,11.37
2018-10-06T21:03:08.357Z,11.40
2018-10-06T21:05:37.301Z,11.77
2018-10-06T21:08:06.541Z,11.83
2018-10-06T21:10:34.621Z,12.20
2018-10-06T21:13:03.561Z,10.80
2018-10-06T21:15:31.854Z,10.65
2018-10-06T21:18:00.222Z,10.07
2018-10-06T21:20:28.341Z,10.40
2018-10-06T21:22:57.689Z,9.47
2018-10-06T21:25:25.842Z,10.03
2018-10-06T21:27:54.125Z,9.30
2018-10-06T21:30:22.478Z,9.23
2018-10-06T21:32:51.540Z,9.23
2018-10-06T21:35:20.979Z,8.45
2018-10-06T21:37:49.089Z,8.80
2018-10-06T21:40:17.150Z,9.60
2018-10-06T21:42:45.273Z,9.30
2018-10-06T21:45:14.669Z,9.77
2018-10-06T21:47:43.317Z,10.13
2018-10-06T21:50:12.126Z,8.13
2018-10-06T21:52:40.558Z,8.73
2018-10-06T21:55:09.870Z,8.90
2018-10-06T21:57:38.497Z,9.37
2018-10-06T22:00:06.807Z,9.97
2018-10-06T22:02:35.139Z,10.23
2018-10-06T22:05:03.989Z,9.53
2018-10-06T22:07:32.974Z,9.60
2018-10-06T22:10:01.867Z,9.80
2018-10-06T22:12:30.773Z,9.37
2018-10-06T22:14:58.925Z,9.40
2018-10-06T22:17:27.765Z,10.18
2018-10-06T22:19:56.093Z,11.10
2018-10-06T22:22:24.993Z,10.70
2018-10-06T22:24:53.825Z,11.10
2018-10-06T22:27:22.521Z,11.37
2018-10-06T22:29:51.394Z,15.00
2018-10-06T22:32:19.703Z,13.20
2018-10-06T22:34:48.189Z,12.93
2018-10-06T22:37:17.252Z,14.17
2018-10-06T22:39:45.453Z,15.00
2018-10-06T22:42:14.453Z,15.40
2018-10-06T22:44:43.673Z,15.87
2018-10-06T22:47:12.877Z,16.30
2018-10-06T22:49:41.642Z,15.97
2018-10-06T22:52:09.835Z,16.47
2018-10-06T22:54:37.981Z,16.17
2018-10-06T22:57:06.702Z,16.40
2018-10-06T22:59:34.951Z,16.40
2018-10-06T23:02:04.451Z,17.13
2018-10-06T23:04:32.882Z,18.00
2018-10-06T23:07:01.108Z,17.37
2018-10-06T23:09:29.591Z,18.83
2018-10-06T23:11:58.438Z,17.47
2018-10-06T23:14:26.957Z,17.77
2018-10-06T23:16:55.665Z,17.97
2018-10-06T23:19:23.753Z,18.48
2018-10-06T23:21:52.453Z,19.00
2018-10-06T23:24:21.145Z,19.17
2018-10-06T23:26:49.649Z,20.20
2018-10-06T23:29:18.713Z,20.83
2018-10-06T23:31:46.886Z,21.93
2018-10-06T23:34:16.235Z,22.07
2018-10-06T23:36:44.462Z,23.30
2018-10-06T23:39:12.629Z,23.50
2018-10-06T23:41:41.631Z,23.53
2018-10-06T23:44:11.269Z,23.70
2018-10-06T23:46:40.434Z,23.43
2018-10-06T23:49:08.685Z,24.30
2018-10-06T23:51:37.721Z,24.33
2018-10-06T23:54:06.470Z,25.17
2018-10-06T23:56:34.798Z,23.17
2018-10-06T23:59:02.901Z,24.50
